sensor_id;sensor_type;location;lat;lon;timestamp;pressure;altitude;pressure_sealevel;temperature;humidity
72124;BME280;63818;37.134;-8.548;2023-02-15T00:03:18;101782.6;;;16.0;95.8
72124;BME280;63818;37.134;-8.548;2023-02-15T00:08:04;101787.1;;;15.6;91.6
72124;BME280;63818;37.134;-8.548;2023-02-15T00:12:54;101794.8;;;15.4;89.7
72124;BME280;63818;37.134;-8.548;2023-02-15T00:17:40;101803.7;;;15.3;89.4
72124;BME280;63818;37.134;-8.548;2023-02-15T00:22:26;101787.8;;;15.3;89.3
72124;BME280;63818;37.134;-8.548;2023-02-15T00:27:13;101827.6;;;15.3;88.8
72124;BME280;63818;37.134;-8.548;2023-02-15T00:32:05;101831.0;;;15.2;89.2
72124;BME280;63818;37.134;-8.548;2023-02-15T00:36:52;101812.5;;;15.1;89.6
72124;BME280;63818;37.134;-8.548;2023-02-15T00:41:45;101791.0;;;15.1;88.9
72124;BME280;63818;37.134;-8.548;2023-02-15T00:51:22;101823.6;;;15.2;90.0
72124;BME280;63818;37.134;-8.548;2023-02-15T00:56:26;101809.2;;;15.2;90.2
72124;BME280;63818;37.134;-8.548;2023-02-15T01:01:14;101802.7;;;15.2;91.0
72124;BME280;63818;37.134;-8.548;2023-02-15T01:06:02;101820.7;;;15.3;91.2
72124;BME280;63818;37.134;-8.548;2023-02-15T01:11:02;101823.1;;;15.3;91.6
72124;BME280;63818;37.134;-8.548;2023-02-15T01:15:54;101817.9;;;15.2;91.5
72124;BME280;63818;37.134;-8.548;2023-02-15T01:22:16;101805.9;;;15.2;91.1
72124;BME280;63818;37.134;-8.548;2023-02-15T01:27:03;101792.4;;;15.2;91.1
72124;BME280;63818;37.134;-8.548;2023-02-15T01:31:49;101779.7;;;15.2;91.3
72124;BME280;63818;37.134;-8.548;2023-02-15T01:36:38;101771.2;;;15.3;90.8
72124;BME280;63818;37.134;-8.548;2023-02-15T01:41:24;101774.9;;;15.2;91.0
72124;BME280;63818;37.134;-8.548;2023-02-15T01:46:13;101767.7;;;15.2;90.8
72124;BME280;63818;37.134;-8.548;2023-02-15T01:51:01;101763.1;;;15.2;90.8
72124;BME280;63818;37.134;-8.548;2023-02-15T01:55:52;101767.0;;;15.1;90.1
72124;BME280;63818;37.134;-8.548;2023-02-15T02:00:53;101770.0;;;15.1;90.2
72124;BME280;63818;37.134;-8.548;2023-02-15T02:05:41;101765.4;;;15.1;89.9
72124;BME280;63818;37.134;-8.548;2023-02-15T02:10:31;101779.6;;;15.1;89.5
72124;BME280;63818;37.134;-8.548;2023-02-15T02:15:20;101775.3;;;15.1;89.5
72124;BME280;63818;37.134;-8.548;2023-02-15T02:27:47;101766.5;;;15.0;89.6
72124;BME280;63818;37.134;-8.548;2023-02-15T02:38:37;101760.3;;;15.0;89.0
72124;BME280;63818;37.134;-8.548;2023-02-15T02:43:33;101758.7;;;15.0;88.9
72124;BME280;63818;37.134;-8.548;2023-02-15T02:48:24;101763.1;;;15.0;88.2
72124;BME280;63818;37.134;-8.548;2023-02-15T02:53:14;101761.3;;;14.9;88.5
72124;BME280;63818;37.134;-8.548;2023-02-15T03:02:51;101758.9;;;14.9;88.0
72124;BME280;63818;37.134;-8.548;2023-02-15T03:07:41;101750.1;;;14.8;88.5
72124;BME280;63818;37.134;-8.548;2023-02-15T03:12:33;101750.1;;;14.8;88.6
72124;BME280;63818;37.134;-8.548;2023-02-15T03:17:22;101741.7;;;14.9;88.9
72124;BME280;63818;37.134;-8.548;2023-02-15T03:22:20;101739.0;;;14.9;87.9
72124;BME280;63818;37.134;-8.548;2023-02-15T03:27:12;101731.2;;;14.8;87.6
72124;BME280;63818;37.134;-8.548;2023-02-15T03:32:02;101729.1;;;14.7;87.9
72124;BME280;63818;37.134;-8.548;2023-02-15T03:38:52;101714.8;;;14.7;88.4
72124;BME280;63818;37.134;-8.548;2023-02-15T03:43:47;101717.2;;;14.7;88.6
72124;BME280;63818;37.134;-8.548;2023-02-15T03:48:38;101709.8;;;14.7;88.3
72124;BME280;63818;37.134;-8.548;2023-02-15T03:53:30;101709.2;;;14.8;87.9
72124;BME280;63818;37.134;-8.548;2023-02-15T03:58:17;101704.1;;;14.8;86.9
72124;BME280;63818;37.134;-8.548;2023-02-15T04:03:26;101703.5;;;14.7;87.0
72124;BME280;63818;37.134;-8.548;2023-02-15T04:08:15;101696.2;;;14.7;86.7
72124;BME280;63818;37.134;-8.548;2023-02-15T04:13:01;101691.8;;;14.7;87.2
72124;BME280;63818;37.134;-8.548;2023-02-15T04:17:48;101689.4;;;14.7;86.6
72124;BME280;63818;37.134;-8.548;2023-02-15T04:22:49;101689.3;;;14.6;86.5
72124;BME280;63818;37.134;-8.548;2023-02-15T04:27:35;101688.2;;;14.6;86.5
72124;BME280;63818;37.134;-8.548;2023-02-15T04:32:29;101681.5;;;14.7;87.0
72124;BME280;63818;37.134;-8.548;2023-02-15T04:37:15;101681.0;;;14.7;86.2
72124;BME280;63818;37.134;-8.548;2023-02-15T04:42:02;101691.2;;;14.6;86.7
72124;BME280;63818;37.134;-8.548;2023-02-15T04:46:48;101682.8;;;14.6;86.6
72124;BME280;63818;37.134;-8.548;2023-02-15T04:51:36;101695.2;;;14.7;86.4
72124;BME280;63818;37.134;-8.548;2023-02-15T04:56:23;101689.5;;;14.5;86.5
72124;BME280;63818;37.134;-8.548;2023-02-15T05:07:51;101687.9;;;14.5;88.0
72124;BME280;63818;37.134;-8.548;2023-02-15T05:12:37;101693.8;;;14.6;87.8
72124;BME280;63818;37.134;-8.548;2023-02-15T05:17:33;101694.3;;;14.6;87.6
72124;BME280;63818;37.134;-8.548;2023-02-15T05:22:20;101695.8;;;14.6;87.8
72124;BME280;63818;37.134;-8.548;2023-02-15T05:27:07;101686.4;;;14.6;87.2
72124;BME280;63818;37.134;-8.548;2023-02-15T05:31:59;101686.9;;;14.6;87.4
72124;BME280;63818;37.134;-8.548;2023-02-15T05:36:45;101681.8;;;14.6;87.4
72124;BME280;63818;37.134;-8.548;2023-02-15T05:41:37;101684.9;;;14.6;87.3
72124;BME280;63818;37.134;-8.548;2023-02-15T05:46:23;101686.2;;;14.6;87.5
72124;BME280;63818;37.134;-8.548;2023-02-15T05:51:12;101679.9;;;14.6;87.8
72124;BME280;63818;37.134;-8.548;2023-02-15T05:56:01;101686.7;;;14.6;87.3
72124;BME280;63818;37.134;-8.548;2023-02-15T06:00:49;101686.7;;;14.6;87.8
72124;BME280;63818;37.134;-8.548;2023-02-15T06:05:38;101676.9;;;14.6;87.3
72124;BME280;63818;37.134;-8.548;2023-02-15T06:10:25;101675.2;;;14.6;87.1
72124;BME280;63818;37.134;-8.548;2023-02-15T06:15:13;101688.8;;;14.6;87.1
72124;BME280;63818;37.134;-8.548;2023-02-15T06:20:00;101691.2;;;14.6;87.4
72124;BME280;63818;37.134;-8.548;2023-02-15T06:24:50;101694.2;;;14.6;87.1
72124;BME280;63818;37.134;-8.548;2023-02-15T06:29:42;101685.1;;;14.6;86.8
72124;BME280;63818;37.134;-8.548;2023-02-15T06:34:28;101685.9;;;14.6;86.9
72124;BME280;63818;37.134;-8.548;2023-02-15T06:39:27;101688.9;;;14.6;86.7
72124;BME280;63818;37.134;-8.548;2023-02-15T06:44:14;101690.8;;;14.6;86.7
72124;BME280;63818;37.134;-8.548;2023-02-15T06:49:47;101694.6;;;14.6;86.9
72124;BME280;63818;37.134;-8.548;2023-02-15T06:54:34;101694.9;;;14.5;86.8
72124;BME280;63818;37.134;-8.548;2023-02-15T07:00:18;101703.5;;;14.6;87.0
72124;BME280;63818;37.134;-8.548;2023-02-15T07:05:05;101708.4;;;14.5;87.0
72124;BME280;63818;37.134;-8.548;2023-02-15T07:09:59;101716.1;;;14.5;87.0
72124;BME280;63818;37.134;-8.548;2023-02-15T07:14:45;101719.3;;;14.5;86.6
72124;BME280;63818;37.134;-8.548;2023-02-15T07:19:32;101726.7;;;14.5;86.8
72124;BME280;63818;37.134;-8.548;2023-02-15T07:24:19;101728.7;;;14.4;86.7
72124;BME280;63818;37.134;-8.548;2023-02-15T07:29:06;101744.5;;;14.4;86.7
72124;BME280;63818;37.134;-8.548;2023-02-15T07:39:21;101754.4;;;14.5;87.1
72124;BME280;63818;37.134;-8.548;2023-02-15T07:44:11;101757.1;;;14.5;87.3
72124;BME280;63818;37.134;-8.548;2023-02-15T07:49:02;101763.5;;;14.5;87.4
72124;BME280;63818;37.134;-8.548;2023-02-15T07:53:49;101771.2;;;14.4;87.2
72124;BME280;63818;37.134;-8.548;2023-02-15T07:58:37;101771.7;;;14.4;87.6
72124;BME280;63818;37.134;-8.548;2023-02-15T08:08:16;101791.6;;;14.5;88.6
72124;BME280;63818;37.134;-8.548;2023-02-15T08:13:03;101798.3;;;14.5;88.6
72124;BME280;63818;37.134;-8.548;2023-02-15T08:17:56;101814.8;;;14.5;88.8
72124;BME280;63818;37.134;-8.548;2023-02-15T08:22:43;101815.8;;;14.5;89.2
72124;BME280;63818;37.134;-8.548;2023-02-15T08:27:29;101825.4;;;14.5;89.2
72124;BME280;63818;37.134;-8.548;2023-02-15T08:32:23;101816.4;;;14.5;89.5
72124;BME280;63818;37.134;-8.548;2023-02-15T08:37:10;101837.8;;;14.5;89.6
72124;BME280;63818;37.134;-8.548;2023-02-15T08:42:03;101833.9;;;14.4;89.5
72124;BME280;63818;37.134;-8.548;2023-02-15T08:46:50;101844.2;;;14.4;89.2
72124;BME280;63818;37.134;-8.548;2023-02-15T08:51:38;101842.8;;;14.4;89.4
72124;BME280;63818;37.134;-8.548;2023-02-15T09:01:18;101853.1;;;14.4;89.4
72124;BME280;63818;37.134;-8.548;2023-02-15T09:06:08;101850.6;;;14.5;89.7
72124;BME280;63818;37.134;-8.548;2023-02-15T09:11:09;101861.9;;;14.5;89.6
72124;BME280;63818;37.134;-8.548;2023-02-15T09:16:07;101862.2;;;14.5;89.8
72124;BME280;63818;37.134;-8.548;2023-02-15T09:20:54;101872.4;;;14.5;90.4
72124;BME280;63818;37.134;-8.548;2023-02-15T09:25:43;101862.6;;;14.5;90.3
72124;BME280;63818;37.134;-8.548;2023-02-15T09:30:31;101872.2;;;14.6;90.4
72124;BME280;63818;37.134;-8.548;2023-02-15T09:35:43;101876.2;;;14.6;90.4
72124;BME280;63818;37.134;-8.548;2023-02-15T09:40:32;101884.8;;;14.6;90.6
72124;BME280;63818;37.134;-8.548;2023-02-15T09:45:26;101883.1;;;14.7;90.2
72124;BME280;63818;37.134;-8.548;2023-02-15T09:50:23;101878.9;;;14.8;90.2
72124;BME280;63818;37.134;-8.548;2023-02-15T09:55:45;101886.4;;;14.8;90.1
72124;BME280;63818;37.134;-8.548;2023-02-15T10:00:39;101876.3;;;14.8;90.1
72124;BME280;63818;37.134;-8.548;2023-02-15T10:05:37;101867.1;;;14.8;89.6
72124;BME280;63818;37.134;-8.548;2023-02-15T10:15:28;101881.6;;;14.9;88.8
72124;BME280;63818;37.134;-8.548;2023-02-15T10:21:48;101888.8;;;14.8;88.8
72124;BME280;63818;37.134;-8.548;2023-02-15T10:26:45;101885.1;;;14.8;87.8
72124;BME280;63818;37.134;-8.548;2023-02-15T10:31:41;101900.2;;;14.8;87.5
72124;BME280;63818;37.134;-8.548;2023-02-15T10:37:06;101897.2;;;14.8;86.9
72124;BME280;63818;37.134;-8.548;2023-02-15T10:42:06;101910.1;;;14.8;87.0
72124;BME280;63818;37.134;-8.548;2023-02-15T10:52:46;101918.7;;;14.9;86.4
72124;BME280;63818;37.134;-8.548;2023-02-15T10:57:44;101910.3;;;14.9;86.4
72124;BME280;63818;37.134;-8.548;2023-02-15T11:02:40;101912.5;;;14.8;86.1
72124;BME280;63818;37.134;-8.548;2023-02-15T11:07:33;101913.1;;;14.8;85.7
72124;BME280;63818;37.134;-8.548;2023-02-15T11:12:23;101926.3;;;14.8;85.5
72124;BME280;63818;37.134;-8.548;2023-02-15T11:17:30;101934.1;;;14.8;85.5
72124;BME280;63818;37.134;-8.548;2023-02-15T11:22:20;101941.8;;;14.8;84.8
72124;BME280;63818;37.134;-8.548;2023-02-15T11:27:19;101944.1;;;14.8;84.8
72124;BME280;63818;37.134;-8.548;2023-02-15T11:40:51;101955.9;;;14.9;84.1
72124;BME280;63818;37.134;-8.548;2023-02-15T11:45:41;101956.4;;;14.9;83.6
72124;BME280;63818;37.134;-8.548;2023-02-15T11:50:40;101958.1;;;15.0;83.1
72124;BME280;63818;37.134;-8.548;2023-02-15T11:55:31;101948.6;;;15.0;82.5
72124;BME280;63818;37.134;-8.548;2023-02-15T12:09:27;101942.1;;;15.1;80.9
72124;BME280;63818;37.134;-8.548;2023-02-15T12:15:04;101935.3;;;15.1;80.5
72124;BME280;63818;37.134;-8.548;2023-02-15T12:19:52;101930.9;;;15.2;79.7
72124;BME280;63818;37.134;-8.548;2023-02-15T12:29:45;101917.0;;;15.3;78.9
72124;BME280;63818;37.134;-8.548;2023-02-15T12:34:43;101913.8;;;15.4;78.9
72124;BME280;63818;37.134;-8.548;2023-02-15T12:39:34;101914.5;;;15.4;78.4
72124;BME280;63818;37.134;-8.548;2023-02-15T12:52:24;101898.5;;;15.7;77.8
72124;BME280;63818;37.134;-8.548;2023-02-15T12:58:13;101890.7;;;15.7;77.7
72124;BME280;63818;37.134;-8.548;2023-02-15T13:03:02;101888.4;;;15.8;77.4
72124;BME280;63818;37.134;-8.548;2023-02-15T13:08:11;101885.2;;;15.9;76.8
72124;BME280;63818;37.134;-8.548;2023-02-15T13:13:00;101876.3;;;15.9;77.1
72124;BME280;63818;37.134;-8.548;2023-02-15T13:17:49;101871.1;;;16.0;76.9
72124;BME280;63818;37.134;-8.548;2023-02-15T13:24:51;101869.3;;;16.0;76.9
72124;BME280;63818;37.134;-8.548;2023-02-15T13:29:43;101865.3;;;16.1;76.6
72124;BME280;63818;37.134;-8.548;2023-02-15T13:36:33;101857.4;;;16.1;76.6
72124;BME280;63818;37.134;-8.548;2023-02-15T13:41:25;101858.2;;;16.0;76.2
72124;BME280;63818;37.134;-8.548;2023-02-15T13:46:37;101867.6;;;16.1;75.2
72124;BME280;63818;37.134;-8.548;2023-02-15T13:51:32;101861.7;;;16.0;74.4
72124;BME280;63818;37.134;-8.548;2023-02-15T13:56:26;101860.6;;;16.1;74.5
72124;BME280;63818;37.134;-8.548;2023-02-15T14:01:20;101865.2;;;16.0;74.2
72124;BME280;63818;37.134;-8.548;2023-02-15T14:06:14;101861.7;;;16.0;74.0
72124;BME280;63818;37.134;-8.548;2023-02-15T14:11:18;101856.1;;;16.0;73.4
72124;BME280;63818;37.134;-8.548;2023-02-15T14:21:30;101868.8;;;16.0;72.9
72124;BME280;63818;37.134;-8.548;2023-02-15T14:27:07;101867.1;;;16.0;72.5
72124;BME280;63818;37.134;-8.548;2023-02-15T14:32:00;101874.9;;;16.1;72.6
72124;BME280;63818;37.134;-8.548;2023-02-15T14:36:51;101861.1;;;16.2;72.7
72124;BME280;63818;37.134;-8.548;2023-02-15T14:42:10;101858.6;;;16.1;72.4
72124;BME280;63818;37.134;-8.548;2023-02-15T14:47:05;101869.8;;;16.0;74.8
72124;BME280;63818;37.134;-8.548;2023-02-15T14:52:13;101875.1;;;16.0;75.7
72124;BME280;63818;37.134;-8.548;2023-02-15T14:57:24;101881.9;;;16.0;75.3
72124;BME280;63818;37.134;-8.548;2023-02-15T15:02:13;101873.8;;;16.0;74.6
72124;BME280;63818;37.134;-8.548;2023-02-15T15:07:28;101884.6;;;16.0;74.9
72124;BME280;63818;37.134;-8.548;2023-02-15T15:12:39;101888.4;;;16.0;73.9
72124;BME280;63818;37.134;-8.548;2023-02-15T15:24:50;101885.1;;;16.1;72.9
72124;BME280;63818;37.134;-8.548;2023-02-15T15:29:41;101883.4;;;16.1;72.3
72124;BME280;63818;37.134;-8.548;2023-02-15T15:34:53;101892.9;;;16.1;72.2
72124;BME280;63818;37.134;-8.548;2023-02-15T15:40:32;101893.7;;;16.1;72.2
72124;BME280;63818;37.134;-8.548;2023-02-15T15:48:26;101900.6;;;16.1;72.1
72124;BME280;63818;37.134;-8.548;2023-02-15T15:53:19;101900.4;;;16.0;72.0
72124;BME280;63818;37.134;-8.548;2023-02-15T15:58:07;101906.2;;;16.0;71.7
72124;BME280;63818;37.134;-8.548;2023-02-15T16:03:41;101911.9;;;16.0;71.8
72124;BME280;63818;37.134;-8.548;2023-02-15T16:08:33;101920.5;;;16.0;71.7
72124;BME280;63818;37.134;-8.548;2023-02-15T16:14:35;101921.8;;;16.1;71.4
72124;BME280;63818;37.134;-8.548;2023-02-15T16:19:26;101927.5;;;16.0;70.7
72124;BME280;63818;37.134;-8.548;2023-02-15T16:24:37;101934.6;;;16.1;70.8
72124;BME280;63818;37.134;-8.548;2023-02-15T16:29:34;101934.9;;;16.0;70.9
72124;BME280;63818;37.134;-8.548;2023-02-15T16:34:21;101935.2;;;16.0;71.3
72124;BME280;63818;37.134;-8.548;2023-02-15T16:40:12;101935.5;;;16.0;71.3
72124;BME280;63818;37.134;-8.548;2023-02-15T16:45:07;101946.4;;;16.0;71.3
72124;BME280;63818;37.134;-8.548;2023-02-15T16:50:01;101948.0;;;16.0;71.8
72124;BME280;63818;37.134;-8.548;2023-02-15T16:54:49;101953.4;;;16.0;71.5
72124;BME280;63818;37.134;-8.548;2023-02-15T17:01:13;101957.4;;;16.0;71.8
72124;BME280;63818;37.134;-8.548;2023-02-15T17:06:03;101959.8;;;16.1;71.9
72124;BME280;63818;37.134;-8.548;2023-02-15T17:11:04;101969.3;;;16.0;72.1
72124;BME280;63818;37.134;-8.548;2023-02-15T17:16:47;101977.4;;;16.0;72.3
72124;BME280;63818;37.134;-8.548;2023-02-15T17:21:48;101992.6;;;16.0;72.9
72124;BME280;63818;37.134;-8.548;2023-02-15T17:26:49;101989.9;;;16.0;73.4
72124;BME280;63818;37.134;-8.548;2023-02-15T17:31:47;102007.5;;;16.1;73.8
72124;BME280;63818;37.134;-8.548;2023-02-15T17:36:33;102009.4;;;16.1;73.7
72124;BME280;63818;37.134;-8.548;2023-02-15T17:41:20;102008.9;;;16.0;74.2
72124;BME280;63818;37.134;-8.548;2023-02-15T17:46:16;102008.7;;;16.0;74.5
72124;BME280;63818;37.134;-8.548;2023-02-15T17:51:03;102015.5;;;16.0;74.7
72124;BME280;63818;37.134;-8.548;2023-02-15T17:55:51;102019.7;;;16.0;74.9
72124;BME280;63818;37.134;-8.548;2023-02-15T18:03:06;102034.6;;;15.9;74.9
72124;BME280;63818;37.134;-8.548;2023-02-15T18:07:54;102040.7;;;15.9;75.2
72124;BME280;63818;37.134;-8.548;2023-02-15T18:12:43;102053.0;;;15.9;75.4
72124;BME280;63818;37.134;-8.548;2023-02-15T18:17:33;102050.0;;;15.9;75.7
72124;BME280;63818;37.134;-8.548;2023-02-15T18:22:20;102066.1;;;15.8;75.4
72124;BME280;63818;37.134;-8.548;2023-02-15T18:27:19;102069.1;;;15.8;75.6
72124;BME280;63818;37.134;-8.548;2023-02-15T18:32:07;102066.4;;;15.8;75.6
72124;BME280;63818;37.134;-8.548;2023-02-15T18:36:55;102082.2;;;15.8;75.3
72124;BME280;63818;37.134;-8.548;2023-02-15T18:41:42;102083.3;;;15.8;75.5
72124;BME280;63818;37.134;-8.548;2023-02-15T18:46:29;102083.6;;;15.8;75.4
72124;BME280;63818;37.134;-8.548;2023-02-15T18:51:25;102081.2;;;15.7;75.1
72124;BME280;63818;37.134;-8.548;2023-02-15T18:58:02;102086.6;;;15.7;74.7
72124;BME280;63818;37.134;-8.548;2023-02-15T19:02:50;102079.6;;;15.7;74.5
72124;BME280;63818;37.134;-8.548;2023-02-15T19:07:37;102086.5;;;15.7;74.5
72124;BME280;63818;37.134;-8.548;2023-02-15T19:12:26;102088.2;;;15.7;74.2
72124;BME280;63818;37.134;-8.548;2023-02-15T19:17:23;102083.9;;;15.6;74.1
72124;BME280;63818;37.134;-8.548;2023-02-15T19:22:12;102088.8;;;15.6;74.3
72124;BME280;63818;37.134;-8.548;2023-02-15T19:26:59;102091.8;;;15.6;74.5
72124;BME280;63818;37.134;-8.548;2023-02-15T19:32:31;102092.9;;;15.6;74.2
72124;BME280;63818;37.134;-8.548;2023-02-15T19:37:23;102086.5;;;15.6;74.5
72124;BME280;63818;37.134;-8.548;2023-02-15T19:42:13;102094.6;;;15.6;74.5
72124;BME280;63818;37.134;-8.548;2023-02-15T19:47:01;102103.1;;;15.6;74.6
72124;BME280;63818;37.134;-8.548;2023-02-15T19:52:15;102104.2;;;15.5;74.6
72124;BME280;63818;37.134;-8.548;2023-02-15T19:57:01;102102.8;;;15.6;74.8
72124;BME280;63818;37.134;-8.548;2023-02-15T20:01:48;102115.8;;;15.6;74.6
72124;BME280;63818;37.134;-8.548;2023-02-15T20:06:35;102124.5;;;15.5;74.8
72124;BME280;63818;37.134;-8.548;2023-02-15T20:11:22;102118.6;;;15.5;75.2
72124;BME280;63818;37.134;-8.548;2023-02-15T20:16:29;102123.0;;;15.4;75.4
72124;BME280;63818;37.134;-8.548;2023-02-15T20:21:17;102128.8;;;15.4;75.7
72124;BME280;63818;37.134;-8.548;2023-02-15T20:26:23;102137.7;;;15.4;75.7
72124;BME280;63818;37.134;-8.548;2023-02-15T20:31:12;102141.0;;;15.4;76.0
72124;BME280;63818;37.134;-8.548;2023-02-15T20:35:59;102144.8;;;15.4;75.8
72124;BME280;63818;37.134;-8.548;2023-02-15T20:40:48;102145.4;;;15.4;75.8
72124;BME280;63818;37.134;-8.548;2023-02-15T20:45:34;102152.3;;;15.4;75.9
72124;BME280;63818;37.134;-8.548;2023-02-15T20:50:23;102158.3;;;15.3;76.0
72124;BME280;63818;37.134;-8.548;2023-02-15T20:55:14;102150.1;;;15.3;75.9
72124;BME280;63818;37.134;-8.548;2023-02-15T21:00:30;102142.4;;;15.3;75.8
72124;BME280;63818;37.134;-8.548;2023-02-15T21:05:18;102155.7;;;15.3;75.7
72124;BME280;63818;37.134;-8.548;2023-02-15T21:12:10;102157.9;;;15.2;76.0
72124;BME280;63818;37.134;-8.548;2023-02-15T21:21:52;102171.3;;;15.2;76.1
72124;BME280;63818;37.134;-8.548;2023-02-15T21:31:32;102172.5;;;15.1;76.6
72124;BME280;63818;37.134;-8.548;2023-02-15T21:36:20;102165.0;;;15.1;76.4
72124;BME280;63818;37.134;-8.548;2023-02-15T21:41:13;102162.9;;;15.0;76.4
72124;BME280;63818;37.134;-8.548;2023-02-15T21:46:12;102171.3;;;15.0;76.2
72124;BME280;63818;37.134;-8.548;2023-02-15T21:51:01;102169.4;;;15.0;76.0
72124;BME280;63818;37.134;-8.548;2023-02-15T21:55:48;102173.2;;;15.0;75.6
72124;BME280;63818;37.134;-8.548;2023-02-15T22:00:34;102169.5;;;15.0;75.5
72124;BME280;63818;37.134;-8.548;2023-02-15T22:05:24;102170.6;;;15.0;75.2
72124;BME280;63818;37.134;-8.548;2023-02-15T22:10:12;102173.5;;;14.9;74.7
72124;BME280;63818;37.134;-8.548;2023-02-15T22:15:00;102167.7;;;14.9;74.9
72124;BME280;63818;37.134;-8.548;2023-02-15T22:19:47;102178.8;;;15.0;74.6
72124;BME280;63818;37.134;-8.548;2023-02-15T22:24:34;102178.8;;;15.0;74.5
72124;BME280;63818;37.134;-8.548;2023-02-15T22:29:23;102173.5;;;14.9;73.9
72124;BME280;63818;37.134;-8.548;2023-02-15T22:34:24;102179.3;;;14.9;73.7
72124;BME280;63818;37.134;-8.548;2023-02-15T22:39:11;102184.0;;;14.8;74.1
72124;BME280;63818;37.134;-8.548;2023-02-15T22:43:58;102192.1;;;14.8;73.9
72124;BME280;63818;37.134;-8.548;2023-02-15T22:48:45;102193.7;;;14.8;73.4
72124;BME280;63818;37.134;-8.548;2023-02-15T22:53:32;102195.1;;;14.8;73.4
72124;BME280;63818;37.134;-8.548;2023-02-15T22:58:20;102198.4;;;14.8;73.6
72124;BME280;63818;37.134;-8.548;2023-02-15T23:03:12;102199.0;;;14.7;73.5
72124;BME280;63818;37.134;-8.548;2023-02-15T23:08:01;102202.1;;;14.6;73.5
72124;BME280;63818;37.134;-8.548;2023-02-15T23:12:50;102200.8;;;14.6;73.9
72124;BME280;63818;37.134;-8.548;2023-02-15T23:17:37;102204.9;;;14.6;74.1
72124;BME280;63818;37.134;-8.548;2023-02-15T23:22:23;102203.9;;;14.6;74.0
72124;BME280;63818;37.134;-8.548;2023-02-15T23:27:14;102204.2;;;14.6;74.2
72124;BME280;63818;37.134;-8.548;2023-02-15T23:32:01;102206.7;;;14.5;74.1
72124;BME280;63818;37.134;-8.548;2023-02-15T23:36:47;102217.5;;;14.5;74.7
72124;BME280;63818;37.134;-8.548;2023-02-15T23:41:33;102209.5;;;14.5;74.8
72124;BME280;63818;37.134;-8.548;2023-02-15T23:46:27;102220.9;;;14.4;75.2
72124;BME280;63818;37.134;-8.548;2023-02-15T23:51:13;102227.7;;;14.4;75.6
72124;BME280;63818;37.134;-8.548;2023-02-15T23:56:00;102219.9;;;14.3;75.8
